createdAt,value
2016-06-30T00:00:16.922Z,0
2016-06-30T00:01:16.237Z,0
2016-06-30T00:02:17.489Z,0
2016-06-30T00:03:18.134Z,0
2016-06-30T00:04:16.922Z,0
2016-06-30T00:05:18.161Z,0
2016-06-30T00:06:17.603Z,0
2016-06-30T00:07:17.608Z,0
2016-06-30T00:08:17.648Z,0
2016-06-30T00:09:16.425Z,0
2016-06-30T00:10:18.321Z,0
2016-06-30T00:11:17.114Z,0
2016-06-30T00:12:17.766Z,0
2016-06-30T00:13:17.154Z,0
2016-06-30T00:14:17.812Z,0
2016-06-30T00:15:17.232Z,0
2016-06-30T00:16:17.859Z,0
2016-06-30T00:17:17.266Z,0
2016-06-30T00:18:20.475Z,0
2016-06-30T00:19:17.456Z,0
2016-06-30T00:20:18.108Z,0
2016-06-30T00:21:16.167Z,0
2016-06-30T00:22:17.492Z,0
2016-06-30T00:23:16.844Z,0
2016-06-30T00:24:18.148Z,0
2016-06-30T00:25:16.897Z,0
2016-06-30T00:26:17.516Z,0
2016-06-30T00:27:17.641Z,0
2016-06-30T00:28:16.950Z,0
2016-06-30T00:29:18.284Z,0
2016-06-30T00:30:18.250Z,0
2016-06-30T00:31:18.307Z,0
2016-06-30T00:32:16.472Z,0
2016-06-30T00:33:18.329Z,0
2016-06-30T00:34:18.992Z,0
2016-06-30T00:35:17.754Z,0
2016-06-30T00:36:17.787Z,0
2016-06-30T00:37:17.870Z,0
2016-06-30T00:38:18.458Z,0
2016-06-30T00:39:17.864Z,0
2016-06-30T00:40:17.888Z,0
2016-06-30T00:41:17.933Z,0
2016-06-30T00:42:19.205Z,0
2016-06-30T00:43:17.971Z,0
2016-06-30T00:44:17.365Z,0
2016-06-30T00:45:18.028Z,0
2016-06-30T00:46:18.076Z,0
2016-06-30T00:47:18.173Z,0
2016-06-30T00:48:18.183Z,0
2016-06-30T00:49:18.137Z,0
2016-06-30T00:50:18.359Z,0
2016-06-30T00:51:19.031Z,0
2016-06-30T00:52:17.744Z,0
2016-06-30T00:53:17.609Z,0
2016-06-30T00:54:18.873Z,0
2016-06-30T00:55:18.925Z,0
2016-06-30T00:56:18.328Z,0
2016-06-30T00:57:17.728Z,0
2016-06-30T00:58:18.985Z,0
2016-06-30T00:59:18.399Z,0
2016-06-30T01:00:19.696Z,0
2016-06-30T01:01:19.074Z,0
2016-06-30T01:02:18.501Z,0
2016-06-30T01:03:19.755Z,0
2016-06-30T01:04:18.707Z,0
2016-06-30T01:05:19.811Z,0
2016-06-30T01:06:19.243Z,0
2016-06-30T01:07:19.379Z,0
2016-06-30T01:08:19.275Z,0
2016-06-30T01:09:18.114Z,0
2016-06-30T01:10:19.333Z,0
2016-06-30T01:11:18.724Z,0
2016-06-30T01:12:19.409Z,0
2016-06-30T01:13:20.024Z,0
2016-06-30T01:14:19.447Z,0
2016-06-30T01:15:20.054Z,0
2016-06-30T01:16:19.485Z,0
2016-06-30T01:17:19.514Z,0
2016-06-30T01:18:19.526Z,0
2016-06-30T01:19:19.563Z,0
2016-06-30T01:20:19.579Z,0
2016-06-30T01:21:18.991Z,0
2016-06-30T01:22:20.264Z,0
2016-06-30T01:23:19.661Z,0
2016-06-30T01:24:20.302Z,0
2016-06-30T01:25:20.343Z,0
2016-06-30T01:26:19.728Z,0
2016-06-30T01:27:19.191Z,0
2016-06-30T01:28:19.797Z,0
2016-06-30T01:29:20.589Z,0
2016-06-30T01:30:17.990Z,0
2016-06-30T01:31:19.341Z,0
2016-06-30T01:32:19.262Z,0
2016-06-30T01:33:19.920Z,0
2016-06-30T01:34:19.328Z,0
2016-06-30T01:35:20.007Z,0
2016-06-30T01:36:19.377Z,0
2016-06-30T01:37:19.419Z,0
2016-06-30T01:38:18.903Z,0
2016-06-30T01:39:19.473Z,0
2016-06-30T01:40:20.155Z,0
2016-06-30T01:41:19.686Z,0
2016-06-30T01:42:20.781Z,0
2016-06-30T01:43:19.576Z,0
2016-06-30T01:44:19.596Z,0
2016-06-30T01:45:19.642Z,0
2016-06-30T01:46:20.300Z,0
2016-06-30T01:47:19.111Z,0
2016-06-30T01:48:19.719Z,0
2016-06-30T01:49:19.743Z,0
2016-06-30T01:50:19.161Z,0
2016-06-30T01:51:20.403Z,0
2016-06-30T01:52:19.826Z,0
2016-06-30T01:53:20.470Z,0
2016-06-30T01:54:19.849Z,0
2016-06-30T01:55:19.310Z,0
2016-06-30T01:56:19.925Z,0
2016-06-30T01:57:20.555Z,0
2016-06-30T01:58:21.227Z,0
2016-06-30T01:59:19.998Z,0
2016-06-30T02:00:20.636Z,0
2016-06-30T02:01:21.284Z,0
2016-06-30T02:02:20.706Z,0
2016-06-30T02:03:20.113Z,0
2016-06-30T02:04:21.370Z,0
2016-06-30T02:05:20.763Z,0
2016-06-30T02:06:20.289Z,0
2016-06-30T02:07:20.825Z,0
2016-06-30T02:08:21.758Z,0
2016-06-30T02:09:21.598Z,0
2016-06-30T02:10:19.665Z,0
2016-06-30T02:11:20.330Z,0
2016-06-30T02:12:20.348Z,0
2016-06-30T02:13:21.689Z,0
2016-06-30T02:14:21.076Z,0
2016-06-30T02:15:21.064Z,0
2016-06-30T02:16:20.434Z,0
2016-06-30T02:17:20.456Z,0
2016-06-30T02:18:20.510Z,0
2016-06-30T02:19:19.894Z,0
2016-06-30T02:20:21.141Z,0
2016-06-30T02:21:20.631Z,0
2016-06-30T02:22:21.210Z,0
2016-06-30T02:23:21.223Z,0
2016-06-30T02:24:20.666Z,0
2016-06-30T02:25:20.693Z,0
2016-06-30T02:26:21.928Z,0
2016-06-30T02:27:21.353Z,0
2016-06-30T02:28:20.189Z,0
2016-06-30T02:29:21.478Z,0
2016-06-30T02:30:20.906Z,0
2016-06-30T02:31:20.912Z,0
2016-06-30T02:32:21.507Z,0
2016-06-30T02:33:20.300Z,0
2016-06-30T02:34:20.918Z,0
2016-06-30T02:35:21.086Z,0
2016-06-30T02:36:21.705Z,0
2016-06-30T02:37:21.723Z,0
2016-06-30T02:38:22.375Z,0
2016-06-30T02:39:21.808Z,0
2016-06-30T02:40:21.763Z,0
2016-06-30T02:41:20.538Z,0
2016-06-30T02:42:21.785Z,0
2016-06-30T02:43:20.617Z,0
2016-06-30T02:44:21.194Z,0
2016-06-30T02:45:21.262Z,0
2016-06-30T02:46:21.198Z,0
2016-06-30T02:47:21.315Z,0
2016-06-30T02:48:21.306Z,0
2016-06-30T02:49:22.144Z,0
2016-06-30T02:50:21.964Z,0
2016-06-30T02:51:22.067Z,0
2016-06-30T02:52:20.823Z,0
2016-06-30T02:53:22.016Z,0
2016-06-30T02:54:21.484Z,0
2016-06-30T02:55:22.060Z,0
2016-06-30T02:56:20.879Z,0
2016-06-30T02:57:21.631Z,0
2016-06-30T02:58:21.519Z,0
2016-06-30T02:59:22.766Z,0
2016-06-30T03:00:21.549Z,0
2016-06-30T03:01:21.575Z,0
2016-06-30T03:02:21.053Z,0
2016-06-30T03:03:22.345Z,0
2016-06-30T03:04:22.287Z,0
2016-06-30T03:05:22.360Z,0
2016-06-30T03:06:21.798Z,0
2016-06-30T03:07:21.743Z,0
2016-06-30T03:08:23.007Z,0
2016-06-30T03:09:22.424Z,0
2016-06-30T03:10:21.883Z,0
2016-06-30T03:11:22.487Z,0
2016-06-30T03:12:21.287Z,0
2016-06-30T03:13:23.138Z,0
2016-06-30T03:14:22.552Z,0
2016-06-30T03:15:21.945Z,0
2016-06-30T03:16:21.345Z,0
2016-06-30T03:17:21.375Z,0
2016-06-30T03:18:23.287Z,0
2016-06-30T03:19:22.063Z,0
2016-06-30T03:20:23.317Z,0
2016-06-30T03:21:22.830Z,0
2016-06-30T03:22:22.583Z,0
2016-06-30T03:23:22.319Z,0
2016-06-30T03:24:22.817Z,0
2016-06-30T03:25:22.210Z,0
2016-06-30T03:26:22.242Z,0
2016-06-30T03:27:22.271Z,0
2016-06-30T03:28:23.526Z,0
2016-06-30T03:29:22.954Z,0
2016-06-30T03:30:21.724Z,0
2016-06-30T03:31:22.361Z,0
2016-06-30T03:32:23.062Z,0
2016-06-30T03:33:22.422Z,0
2016-06-30T03:34:23.042Z,0
2016-06-30T03:35:23.071Z,0
2016-06-30T03:36:21.854Z,0
2016-06-30T03:37:22.527Z,0
2016-06-30T03:38:23.873Z,0
2016-06-30T03:39:23.174Z,0
2016-06-30T03:40:22.604Z,0
2016-06-30T03:41:23.888Z,0
2016-06-30T03:42:22.641Z,0
2016-06-30T03:43:22.682Z,0
2016-06-30T03:44:24.026Z,0
2016-06-30T03:45:24.025Z,0
2016-06-30T03:46:23.343Z,5
2016-06-30T03:47:23.395Z,5
2016-06-30T03:48:23.423Z,5
2016-06-30T03:49:22.832Z,5
2016-06-30T03:50:22.834Z,5
2016-06-30T03:51:22.928Z,5
2016-06-30T03:52:22.894Z,5
2016-06-30T03:53:22.906Z,5
2016-06-30T03:54:23.692Z,5
2016-06-30T03:55:24.210Z,5
2016-06-30T03:56:24.334Z,5
2016-06-30T03:57:24.010Z,5
2016-06-30T03:58:23.879Z,5
2016-06-30T03:59:23.159Z,5
2016-06-30T04:00:23.168Z,5
2016-06-30T04:01:23.894Z,5
2016-06-30T04:02:23.835Z,5
2016-06-30T04:03:23.170Z,5
2016-06-30T04:04:23.979Z,5
2016-06-30T04:05:23.989Z,5
2016-06-30T04:06:22.623Z,5
2016-06-30T04:07:22.661Z,5
2016-06-30T04:08:23.293Z,5
2016-06-30T04:09:24.592Z,5
2016-06-30T04:10:23.333Z,5
2016-06-30T04:11:24.049Z,5
2016-06-30T04:12:23.396Z,5
2016-06-30T04:13:24.056Z,5
2016-06-30T04:14:24.131Z,5
2016-06-30T04:15:22.936Z,5
2016-06-30T04:16:23.638Z,5
2016-06-30T04:17:23.834Z,5
2016-06-30T04:18:22.971Z,5
2016-06-30T04:19:24.309Z,5
2016-06-30T04:20:23.697Z,5
2016-06-30T04:21:24.955Z,5
2016-06-30T04:22:23.098Z,5
2016-06-30T04:23:23.876Z,5
2016-06-30T04:24:22.610Z,5
2016-06-30T04:25:24.481Z,5
2016-06-30T04:26:24.477Z,5
2016-06-30T04:27:25.110Z,5
2016-06-30T04:28:24.501Z,5
2016-06-30T04:29:24.510Z,5
2016-06-30T04:30:23.967Z,5
2016-06-30T04:31:24.494Z,5
2016-06-30T04:32:23.898Z,5
2016-06-30T04:33:24.541Z,5
2016-06-30T04:34:24.589Z,5
2016-06-30T04:35:24.014Z,5
2016-06-30T04:36:23.409Z,5
2016-06-30T04:37:24.078Z,5
2016-06-30T04:38:24.859Z,5
2016-06-30T04:39:24.691Z,5
2016-06-30T04:40:24.104Z,5
2016-06-30T04:41:24.739Z,5
2016-06-30T04:42:24.753Z,5
2016-06-30T04:43:25.398Z,5
2016-06-30T04:44:24.194Z,5
2016-06-30T04:45:24.855Z,5
2016-06-30T04:46:25.462Z,5
2016-06-30T04:47:24.886Z,5
2016-06-30T04:48:24.285Z,10
2016-06-30T04:49:23.817Z,10
2016-06-30T04:50:24.956Z,10
2016-06-30T04:51:25.001Z,10
2016-06-30T04:52:25.030Z,10
2016-06-30T04:53:24.434Z,10
2016-06-30T04:54:25.061Z,10
2016-06-30T04:55:24.544Z,10
2016-06-30T04:56:25.730Z,10
2016-06-30T04:57:23.942Z,10
2016-06-30T04:58:25.156Z,10
2016-06-30T04:59:24.570Z,10
2016-06-30T05:00:24.604Z,15
2016-06-30T05:01:24.666Z,15
2016-06-30T05:02:24.716Z,15
2016-06-30T05:03:24.760Z,15
2016-06-30T05:04:24.766Z,15
2016-06-30T05:05:25.381Z,15
2016-06-30T05:06:25.398Z,10
2016-06-30T05:07:24.820Z,10
2016-06-30T05:08:26.068Z,10
2016-06-30T05:09:24.945Z,10
2016-06-30T05:10:25.529Z,10
2016-06-30T05:11:24.956Z,10
2016-06-30T05:12:23.710Z,10
2016-06-30T05:13:25.576Z,10
2016-06-30T05:14:24.985Z,10
2016-06-30T05:15:25.645Z,10
2016-06-30T05:16:26.285Z,10
2016-06-30T05:17:25.314Z,10
2016-06-30T05:18:24.573Z,10
2016-06-30T05:19:25.722Z,10
2016-06-30T05:20:25.130Z,10
2016-06-30T05:21:24.551Z,10
2016-06-30T05:22:26.408Z,10
2016-06-30T05:23:26.454Z,10
2016-06-30T05:24:24.836Z,10
2016-06-30T05:25:25.897Z,15
2016-06-30T05:26:25.331Z,15
2016-06-30T05:27:25.478Z,15
2016-06-30T05:28:25.958Z,15
2016-06-30T05:29:24.423Z,10
2016-06-30T05:30:26.126Z,10
2016-06-30T05:31:26.026Z,10
2016-06-30T05:32:26.271Z,10
2016-06-30T05:33:26.708Z,10
2016-06-30T05:34:26.114Z,10
2016-06-30T05:35:26.752Z,10
2016-06-30T05:36:26.224Z,10
2016-06-30T05:37:26.273Z,10
2016-06-30T05:38:26.370Z,10
2016-06-30T05:39:25.078Z,10
2016-06-30T05:40:26.254Z,10
2016-06-30T05:41:25.708Z,10
2016-06-30T05:42:26.960Z,10
2016-06-30T05:43:26.352Z,10
2016-06-30T05:44:25.763Z,10
2016-06-30T05:45:26.432Z,10
2016-06-30T05:46:26.435Z,10
2016-06-30T05:47:25.840Z,10
2016-06-30T05:48:25.879Z,15
2016-06-30T05:49:26.487Z,15
2016-06-30T05:50:27.130Z,15
2016-06-30T05:51:25.309Z,15
2016-06-30T05:52:26.562Z,15
2016-06-30T05:53:25.361Z,15
2016-06-30T05:54:26.047Z,10
2016-06-30T05:55:26.098Z,10
2016-06-30T05:56:26.084Z,10
2016-06-30T05:57:25.524Z,10
2016-06-30T05:58:26.123Z,10
2016-06-30T05:59:26.757Z,10
2016-06-30T06:00:25.652Z,10
2016-06-30T06:01:26.326Z,10
2016-06-30T06:02:25.604Z,10
2016-06-30T06:03:25.633Z,10
2016-06-30T06:04:26.279Z,10
2016-06-30T06:05:26.272Z,10
2016-06-30T06:06:25.159Z,10
2016-06-30T06:07:26.555Z,15
2016-06-30T06:08:27.062Z,15
2016-06-30T06:09:26.446Z,15
2016-06-30T06:10:27.179Z,15
2016-06-30T06:11:27.079Z,15
2016-06-30T06:12:27.086Z,15
2016-06-30T06:13:25.893Z,15
2016-06-30T06:14:26.022Z,15
2016-06-30T06:15:27.274Z,15
2016-06-30T06:16:26.578Z,15
2016-06-30T06:17:26.617Z,15
2016-06-30T06:18:26.098Z,15
2016-06-30T06:19:26.788Z,15
2016-06-30T06:20:26.801Z,15
2016-06-30T06:21:26.957Z,15
2016-06-30T06:22:26.941Z,15
2016-06-30T06:23:27.376Z,15
2016-06-30T06:24:26.177Z,15
2016-06-30T06:25:26.870Z,15
2016-06-30T06:26:26.861Z,20
2016-06-30T06:27:26.894Z,20
2016-06-30T06:28:26.255Z,20
2016-06-30T06:29:26.951Z,20
2016-06-30T06:30:26.923Z,20
2016-06-30T06:31:26.988Z,20
2016-06-30T06:32:26.997Z,20
2016-06-30T06:33:28.416Z,20
2016-06-30T06:34:27.092Z,25
2016-06-30T06:35:26.437Z,25
2016-06-30T06:36:28.453Z,25
2016-06-30T06:37:27.128Z,25
2016-06-30T06:38:27.185Z,25
2016-06-30T06:39:27.779Z,30
2016-06-30T06:40:27.826Z,30
2016-06-30T06:41:28.470Z,30
2016-06-30T06:42:27.892Z,30
2016-06-30T06:43:27.477Z,30
2016-06-30T06:44:27.487Z,30
2016-06-30T06:45:27.346Z,30
2016-06-30T06:46:27.974Z,30
2016-06-30T06:47:27.377Z,35
2016-06-30T06:48:26.185Z,35
2016-06-30T06:49:26.918Z,35
2016-06-30T06:50:28.136Z,35
2016-06-30T06:51:28.096Z,35
2016-06-30T06:52:27.549Z,35
2016-06-30T06:53:28.142Z,35
2016-06-30T06:54:28.262Z,30
2016-06-30T06:55:27.046Z,30
2016-06-30T06:56:27.634Z,30
2016-06-30T06:57:28.142Z,30
2016-06-30T06:58:27.695Z,25
2016-06-30T06:59:27.723Z,25
2016-06-30T07:00:27.803Z,25
2016-06-30T07:01:27.092Z,25
2016-06-30T07:02:27.148Z,25
2016-06-30T07:03:28.479Z,20
2016-06-30T07:04:27.187Z,20
2016-06-30T07:05:27.211Z,20
2016-06-30T07:06:27.855Z,25
2016-06-30T07:07:28.525Z,25
2016-06-30T07:08:26.687Z,20
2016-06-30T07:09:27.958Z,20
2016-06-30T07:10:27.343Z,25
2016-06-30T07:11:29.334Z,25
2016-06-30T07:12:27.997Z,30
2016-06-30T07:13:28.657Z,30
2016-06-30T07:14:28.758Z,30
2016-06-30T07:15:28.135Z,25
2016-06-30T07:16:28.145Z,25
2016-06-30T07:17:28.153Z,25
2016-06-30T07:18:28.174Z,25
2016-06-30T07:19:29.465Z,30
2016-06-30T07:20:28.934Z,30
2016-06-30T07:21:28.306Z,30
2016-06-30T07:22:28.481Z,30
2016-06-30T07:23:27.267Z,30
2016-06-30T07:24:29.587Z,30
2016-06-30T07:25:29.591Z,35
2016-06-30T07:26:28.421Z,35
2016-06-30T07:27:28.400Z,40
2016-06-30T07:28:29.152Z,40
2016-06-30T07:29:28.536Z,35
2016-06-30T07:30:28.576Z,35
2016-06-30T07:31:28.546Z,35
2016-06-30T07:32:28.543Z,40
2016-06-30T07:33:28.594Z,40
2016-06-30T07:34:28.628Z,40
2016-06-30T07:35:29.261Z,40
2016-06-30T07:36:29.903Z,40
2016-06-30T07:37:29.336Z,35
2016-06-30T07:38:28.911Z,40
2016-06-30T07:39:29.474Z,40
2016-06-30T07:40:28.634Z,40
2016-06-30T07:41:28.892Z,40
2016-06-30T07:42:28.187Z,35
2016-06-30T07:43:28.870Z,35
2016-06-30T07:44:28.930Z,35
2016-06-30T07:45:28.927Z,30
2016-06-30T07:46:29.735Z,30
2016-06-30T07:47:28.344Z,30
2016-06-30T07:48:30.302Z,30
2016-06-30T07:49:29.703Z,30
2016-06-30T07:50:28.453Z,30
2016-06-30T07:51:29.061Z,30
2016-06-30T07:52:29.716Z,30
2016-06-30T07:53:29.740Z,30
2016-06-30T07:54:28.525Z,30
2016-06-30T07:55:29.796Z,25
2016-06-30T07:56:29.813Z,25
2016-06-30T07:57:29.283Z,25
2016-06-30T07:58:28.688Z,25
2016-06-30T07:59:28.033Z,25
2016-06-30T08:00:28.735Z,30
2016-06-30T08:01:29.521Z,30
2016-06-30T08:02:30.032Z,35
2016-06-30T08:03:29.474Z,35
2016-06-30T08:04:29.446Z,35
2016-06-30T08:05:30.201Z,30
2016-06-30T08:06:33.547Z,30
2016-06-30T08:07:29.598Z,30
2016-06-30T08:08:30.427Z,30
2016-06-30T08:09:29.635Z,30
2016-06-30T08:10:30.211Z,30
2016-06-30T08:11:30.328Z,30
2016-06-30T08:12:30.331Z,30
2016-06-30T08:13:30.335Z,30
2016-06-30T08:14:29.711Z,30
2016-06-30T08:15:30.419Z,30
2016-06-30T08:16:30.364Z,30
2016-06-30T08:17:29.245Z,35
2016-06-30T08:18:31.065Z,35
2016-06-30T08:19:31.067Z,35
2016-06-30T08:20:29.454Z,35
2016-06-30T08:21:29.442Z,35
2016-06-30T08:22:29.936Z,35
2016-06-30T08:23:30.639Z,35
2016-06-30T08:24:30.103Z,35
2016-06-30T08:25:30.626Z,35
2016-06-30T08:26:31.276Z,35
2016-06-30T08:27:30.683Z,40
2016-06-30T08:28:31.320Z,40
2016-06-30T08:29:30.746Z,40
2016-06-30T08:30:30.156Z,40
2016-06-30T08:31:31.414Z,40
2016-06-30T08:32:30.808Z,35
2016-06-30T08:33:30.840Z,35
2016-06-30T08:34:30.258Z,35
2016-06-30T08:35:31.528Z,35
2016-06-30T08:36:30.309Z,35
2016-06-30T08:37:30.347Z,35
2016-06-30T08:38:30.412Z,35
2016-06-30T08:39:31.023Z,30
2016-06-30T08:40:31.671Z,30
2016-06-30T08:41:31.693Z,35
2016-06-30T08:42:29.871Z,35
2016-06-30T08:43:30.515Z,35
2016-06-30T08:44:30.547Z,35
2016-06-30T08:45:29.979Z,35
2016-06-30T08:46:31.215Z,35
2016-06-30T08:47:30.630Z,35
2016-06-30T08:48:30.721Z,35
2016-06-30T08:49:30.712Z,35
2016-06-30T08:50:31.334Z,35
2016-06-30T08:51:29.499Z,35
2016-06-30T08:52:31.394Z,35
2016-06-30T08:53:29.583Z,35
2016-06-30T08:54:30.218Z,35
2016-06-30T08:55:31.465Z,35
2016-06-30T08:56:31.642Z,35
2016-06-30T08:57:31.613Z,35
2016-06-30T08:58:30.339Z,40
2016-06-30T08:59:31.630Z,35
2016-06-30T09:00:31.004Z,35
2016-06-30T09:01:30.404Z,35
2016-06-30T09:02:30.499Z,35
2016-06-30T09:03:31.078Z,35
2016-06-30T09:04:31.130Z,35
2016-06-30T09:05:31.826Z,35
2016-06-30T09:06:31.231Z,35
2016-06-30T09:07:31.811Z,35
2016-06-30T09:08:30.626Z,35
2016-06-30T09:09:31.907Z,30
2016-06-30T09:10:32.035Z,30
2016-06-30T09:11:31.421Z,30
2016-06-30T09:12:31.460Z,30
2016-06-30T09:13:31.441Z,30
2016-06-30T09:14:32.225Z,30
2016-06-30T09:15:32.251Z,35
2016-06-30T09:16:32.233Z,35
2016-06-30T09:17:31.643Z,35
2016-06-30T09:18:32.254Z,35
2016-06-30T09:19:31.600Z,35
2016-06-30T09:20:32.329Z,30
2016-06-30T09:21:31.662Z,30
2016-06-30T09:22:30.388Z,30
2016-06-30T09:23:32.998Z,30
2016-06-30T09:24:32.383Z,30
2016-06-30T09:25:31.789Z,30
2016-06-30T09:26:31.738Z,30
2016-06-30T09:27:30.527Z,30
2016-06-30T09:28:32.539Z,30
2016-06-30T09:29:32.562Z,30
2016-06-30T09:30:32.559Z,30
2016-06-30T09:31:31.903Z,35
2016-06-30T09:32:31.988Z,35
2016-06-30T09:33:32.577Z,35
2016-06-30T09:34:33.250Z,35
2016-06-30T09:35:33.274Z,35
2016-06-30T09:36:32.045Z,35
2016-06-30T09:37:33.310Z,35
2016-06-30T09:38:32.164Z,35
2016-06-30T09:39:33.572Z,35
2016-06-30T09:40:32.356Z,35
2016-06-30T09:41:32.982Z,35
2016-06-30T09:42:33.461Z,30
2016-06-30T09:43:32.413Z,30
2016-06-30T09:44:31.809Z,30
2016-06-30T09:45:32.462Z,30
2016-06-30T09:46:32.361Z,35
2016-06-30T09:47:32.469Z,35
2016-06-30T09:48:32.606Z,35
2016-06-30T09:49:32.477Z,40
2016-06-30T09:50:32.494Z,40
2016-06-30T09:51:33.190Z,40
2016-06-30T09:52:32.546Z,40
2016-06-30T09:53:33.134Z,40
2016-06-30T09:54:32.562Z,40
2016-06-30T09:55:31.996Z,40
2016-06-30T09:56:32.626Z,35
2016-06-30T09:57:32.656Z,35
2016-06-30T09:58:33.291Z,35
2016-06-30T09:59:33.398Z,35
2016-06-30T10:00:33.374Z,35
2016-06-30T10:01:33.410Z,35
2016-06-30T10:02:33.427Z,35
2016-06-30T10:03:32.817Z,35
2016-06-30T10:04:34.142Z,40
2016-06-30T10:05:33.527Z,40
2016-06-30T10:06:32.966Z,40
2016-06-30T10:07:31.787Z,40
2016-06-30T10:08:33.666Z,40
2016-06-30T10:09:33.022Z,40
2016-06-30T10:10:32.425Z,40
2016-06-30T10:11:33.719Z,40
2016-06-30T10:12:33.110Z,45
2016-06-30T10:13:34.365Z,45
2016-06-30T10:14:33.158Z,45
2016-06-30T10:15:33.273Z,45
2016-06-30T10:16:33.349Z,40
2016-06-30T10:17:32.771Z,35
2016-06-30T10:18:33.451Z,35
2016-06-30T10:19:33.908Z,40
2016-06-30T10:20:33.351Z,40
2016-06-30T10:21:33.380Z,45
2016-06-30T10:22:33.389Z,45
2016-06-30T10:23:34.035Z,45
2016-06-30T10:24:33.440Z,45
2016-06-30T10:25:33.523Z,45
2016-06-30T10:26:33.494Z,45
2016-06-30T10:27:34.160Z,45
2016-06-30T10:28:33.627Z,45
2016-06-30T10:29:34.233Z,45
2016-06-30T10:30:34.253Z,45
2016-06-30T10:31:34.899Z,50
2016-06-30T10:32:33.694Z,50
2016-06-30T10:33:33.733Z,45
2016-06-30T10:34:34.389Z,45
2016-06-30T10:35:33.159Z,45
2016-06-30T10:36:33.185Z,45
2016-06-30T10:37:34.449Z,50
2016-06-30T10:38:33.882Z,50
2016-06-30T10:39:34.503Z,50
2016-06-30T10:40:33.929Z,50
2016-06-30T10:41:33.343Z,50
2016-06-30T10:42:33.977Z,50
2016-06-30T10:43:35.219Z,45
2016-06-30T10:44:34.659Z,50
2016-06-30T10:45:34.202Z,50
2016-06-30T10:46:33.489Z,50
2016-06-30T10:47:33.489Z,50
2016-06-30T10:48:34.780Z,50
2016-06-30T10:49:34.250Z,50
2016-06-30T10:50:34.202Z,45
2016-06-30T10:51:34.860Z,40
2016-06-30T10:52:34.266Z,40
2016-06-30T10:53:34.939Z,40
2016-06-30T10:54:34.355Z,35
2016-06-30T10:55:35.018Z,35
2016-06-30T10:56:34.979Z,35
2016-06-30T10:57:35.654Z,35
2016-06-30T10:58:35.680Z,35
2016-06-30T10:59:34.489Z,40
2016-06-30T11:00:34.527Z,45
2016-06-30T11:01:35.189Z,50
2016-06-30T11:02:35.207Z,50
2016-06-30T11:03:33.993Z,50
2016-06-30T11:04:35.919Z,55
2016-06-30T11:05:35.331Z,55
2016-06-30T11:06:34.084Z,60
2016-06-30T11:07:36.180Z,65
2016-06-30T11:08:35.391Z,70
2016-06-30T11:09:34.771Z,75
2016-06-30T11:10:36.071Z,75
2016-06-30T11:11:35.446Z,75
2016-06-30T11:12:34.254Z,70
2016-06-30T11:13:34.280Z,75
2016-06-30T11:14:34.918Z,80
2016-06-30T11:15:34.996Z,80
2016-06-30T11:16:35.016Z,65
2016-06-30T11:17:35.028Z,70
2016-06-30T11:18:36.278Z,70
2016-06-30T11:19:35.684Z,70
2016-06-30T11:20:35.825Z,65
2016-06-30T11:21:35.742Z,70
2016-06-30T11:22:35.208Z,65
2016-06-30T11:23:36.441Z,65
2016-06-30T11:24:35.851Z,70
2016-06-30T11:25:35.878Z,75
2016-06-30T11:26:35.331Z,70
2016-06-30T11:27:36.066Z,50
2016-06-30T11:28:34.738Z,40
2016-06-30T11:29:36.076Z,45
2016-06-30T11:30:35.405Z,60
2016-06-30T11:31:36.102Z,70
2016-06-30T11:32:35.463Z,60
2016-06-30T11:33:35.490Z,60
2016-06-30T11:34:36.250Z,60
2016-06-30T11:35:35.561Z,45
2016-06-30T11:36:35.594Z,40
2016-06-30T11:37:36.285Z,45
2016-06-30T11:38:35.659Z,65
2016-06-30T11:39:35.061Z,70
2016-06-30T11:40:36.498Z,85
2016-06-30T11:41:35.863Z,105
2016-06-30T11:42:36.587Z,120
2016-06-30T11:43:36.494Z,105
2016-06-30T11:44:36.477Z,100
2016-06-30T11:45:35.940Z,95
2016-06-30T11:46:36.645Z,85
2016-06-30T11:47:36.653Z,85
2016-06-30T11:48:36.655Z,85
2016-06-30T11:49:35.424Z,80
2016-06-30T11:50:36.051Z,90
2016-06-30T11:51:36.797Z,75
2016-06-30T11:52:36.707Z,70
2016-06-30T11:53:36.743Z,80
2016-06-30T11:54:36.957Z,85
2016-06-30T11:55:35.728Z,65
2016-06-30T11:56:36.349Z,60
2016-06-30T11:57:35.726Z,80
2016-06-30T11:58:35.681Z,95
2016-06-30T11:59:37.022Z,100
2016-06-30T12:00:36.341Z,100
2016-06-30T12:01:35.782Z,85
2016-06-30T12:02:35.822Z,95
2016-06-30T12:03:36.493Z,115
2016-06-30T12:04:36.484Z,130
2016-06-30T12:05:36.536Z,100
2016-06-30T12:06:35.930Z,90
2016-06-30T12:07:36.609Z,80
2016-06-30T12:08:36.590Z,70
2016-06-30T12:09:36.634Z,70
2016-06-30T12:10:36.027Z,70
2016-06-30T12:11:37.313Z,70
2016-06-30T12:12:37.357Z,60
2016-06-30T12:13:37.402Z,55
2016-06-30T12:14:36.804Z,65
2016-06-30T12:15:36.968Z,70
2016-06-30T12:16:36.867Z,75
2016-06-30T12:17:38.145Z,80
2016-06-30T12:18:36.914Z,75
2016-06-30T12:19:37.570Z,75
2016-06-30T12:20:36.993Z,65
2016-06-30T12:21:37.011Z,60
2016-06-30T12:22:37.695Z,65
2016-06-30T12:23:35.855Z,75
2016-06-30T12:24:37.109Z,85
2016-06-30T12:25:36.513Z,125
2016-06-30T12:26:38.419Z,100
2016-06-30T12:27:37.918Z,105
2016-06-30T12:28:37.283Z,115
2016-06-30T12:29:37.935Z,70
2016-06-30T12:30:38.566Z,65
2016-06-30T12:31:37.629Z,75
2016-06-30T12:32:37.390Z,80
2016-06-30T12:33:37.505Z,85
2016-06-30T12:34:37.439Z,85
2016-06-30T12:35:38.099Z,95
2016-06-30T12:36:36.349Z,110
2016-06-30T12:37:37.153Z,120
2016-06-30T12:38:37.599Z,105
2016-06-30T12:39:38.318Z,90
2016-06-30T12:40:37.703Z,80
2016-06-30T12:41:38.913Z,90
2016-06-30T12:42:37.711Z,85
2016-06-30T12:43:37.922Z,115
2016-06-30T12:44:36.686Z,115
2016-06-30T12:45:39.057Z,105
2016-06-30T12:46:37.855Z,95
2016-06-30T12:47:37.325Z,80
2016-06-30T12:48:37.902Z,60
2016-06-30T12:49:37.962Z,90
2016-06-30T12:50:38.606Z,105
2016-06-30T12:51:36.862Z,90
2016-06-30T12:52:38.018Z,60
2016-06-30T12:53:38.141Z,85
2016-06-30T12:54:39.412Z,95
2016-06-30T12:55:38.127Z,75
2016-06-30T12:56:38.169Z,55
2016-06-30T12:57:38.194Z,65
2016-06-30T12:58:38.285Z,85
2016-06-30T12:59:39.115Z,90
2016-06-30T13:00:37.770Z,70
2016-06-30T13:01:39.648Z,60
2016-06-30T13:02:38.409Z,70
2016-06-30T13:03:38.414Z,65
2016-06-30T13:04:38.560Z,45
2016-06-30T13:05:38.561Z,70
2016-06-30T13:06:39.844Z,65
2016-06-30T13:07:39.884Z,60
2016-06-30T13:08:38.574Z,55
2016-06-30T13:09:38.709Z,60
2016-06-30T13:10:39.265Z,40
2016-06-30T13:11:39.370Z,25
2016-06-30T13:12:38.709Z,20
2016-06-30T13:13:39.994Z,25
2016-06-30T13:14:39.409Z,30
2016-06-30T13:15:38.946Z,20
2016-06-30T13:16:39.498Z,15
2016-06-30T13:17:38.897Z,15
2016-06-30T13:18:39.563Z,20
2016-06-30T13:19:40.352Z,25
2016-06-30T13:20:38.985Z,20
2016-06-30T13:21:39.027Z,20
2016-06-30T13:22:39.680Z,15
2016-06-30T13:23:40.373Z,15
2016-06-30T13:24:39.138Z,10
2016-06-30T13:25:39.535Z,10
2016-06-30T13:26:38.967Z,10
2016-06-30T13:27:38.777Z,10
2016-06-30T13:28:39.724Z,10
2016-06-30T13:29:40.701Z,10
2016-06-30T13:30:38.889Z,10
2016-06-30T13:31:38.882Z,10
2016-06-30T13:32:39.578Z,10
2016-06-30T13:33:39.015Z,15
2016-06-30T13:34:39.127Z,20
2016-06-30T13:35:39.819Z,15
2016-06-30T13:36:39.071Z,10
2016-06-30T13:37:40.407Z,15
2016-06-30T13:38:40.349Z,15
2016-06-30T13:39:40.345Z,20
2016-06-30T13:40:40.904Z,20
2016-06-30T13:41:40.394Z,20
2016-06-30T13:42:39.117Z,20
2016-06-30T13:43:41.081Z,15
2016-06-30T13:44:41.141Z,15
2016-06-30T13:45:40.022Z,15
2016-06-30T13:46:40.708Z,20
2016-06-30T13:47:40.029Z,20
2016-06-30T13:48:40.747Z,20
2016-06-30T13:49:41.455Z,25
2016-06-30T13:50:39.430Z,25
2016-06-30T13:51:39.595Z,30
2016-06-30T13:52:41.439Z,35
2016-06-30T13:53:40.411Z,40
2016-06-30T13:54:41.479Z,45
2016-06-30T13:55:40.855Z,45
2016-06-30T13:56:40.879Z,45
2016-06-30T13:57:39.679Z,45
2016-06-30T13:58:39.734Z,45
2016-06-30T13:59:40.359Z,45
2016-06-30T14:00:41.590Z,45
2016-06-30T14:01:41.630Z,45
2016-06-30T14:02:41.913Z,50
2016-06-30T14:03:40.950Z,55
2016-06-30T14:04:40.871Z,55
2016-06-30T14:05:40.891Z,55
2016-06-30T14:06:40.611Z,60
2016-06-30T14:07:40.684Z,60
2016-06-30T14:08:40.736Z,60
2016-06-30T14:09:40.389Z,50
2016-06-30T14:10:42.424Z,45
2016-06-30T14:11:40.827Z,45
2016-06-30T14:12:41.535Z,45
2016-06-30T14:13:40.976Z,45
2016-06-30T14:14:41.010Z,45
2016-06-30T14:15:40.470Z,45
2016-06-30T14:16:40.363Z,40
2016-06-30T14:17:41.607Z,45
2016-06-30T14:18:41.187Z,55
2016-06-30T14:19:41.107Z,55
2016-06-30T14:20:40.669Z,55
2016-06-30T14:21:41.076Z,70
2016-06-30T14:22:41.067Z,65
2016-06-30T14:23:41.086Z,55
2016-06-30T14:24:41.755Z,60
2016-06-30T14:25:41.153Z,70